createdAt,value
2017-03-26T00:00:13.143Z,16.86
2017-03-26T00:00:53.778Z,16.78
2017-03-26T00:01:34.398Z,16.85
2017-03-26T00:02:15.031Z,16.89
2017-03-26T00:02:55.666Z,16.88
2017-03-26T00:03:36.315Z,16.8
2017-03-26T00:04:16.943Z,16.78
2017-03-26T00:04:57.573Z,16.83
2017-03-26T00:05:39.242Z,16.8
2017-03-26T00:06:19.867Z,16.78
2017-03-26T00:07:00.494Z,16.89
2017-03-26T00:07:41.194Z,16.83
2017-03-26T00:08:21.915Z,16.92
2017-03-26T00:09:02.544Z,16.81
2017-03-26T00:09:43.241Z,16.85
2017-03-26T00:10:23.916Z,16.89
2017-03-26T00:11:04.540Z,16.86
2017-03-26T00:11:45.185Z,16.89
2017-03-26T00:12:25.813Z,16.81
2017-03-26T00:13:06.457Z,16.85
2017-03-26T00:13:47.074Z,16.89
2017-03-26T00:14:27.816Z,16.86
2017-03-26T00:15:08.485Z,16.81
2017-03-26T00:15:49.105Z,16.83
2017-03-26T00:16:29.749Z,16.89
2017-03-26T00:17:10.409Z,16.83
2017-03-26T00:17:51.040Z,16.89
2017-03-26T00:18:31.696Z,16.89
2017-03-26T00:19:12.350Z,16.81
2017-03-26T00:19:52.997Z,16.88
2017-03-26T00:20:33.671Z,16.81
2017-03-26T00:21:14.405Z,16.86
2017-03-26T00:21:55.032Z,16.85
2017-03-26T00:22:35.694Z,16.89
2017-03-26T00:23:16.427Z,16.88
2017-03-26T00:23:57.089Z,16.88
2017-03-26T00:24:37.732Z,16.83
2017-03-26T00:25:18.462Z,16.8
2017-03-26T00:25:59.174Z,16.77
2017-03-26T00:26:39.798Z,16.8
2017-03-26T00:27:20.429Z,16.83
2017-03-26T00:28:01.112Z,16.77
2017-03-26T00:28:41.745Z,16.89
2017-03-26T00:29:22.452Z,16.81
2017-03-26T00:30:03.141Z,16.83
2017-03-26T00:30:43.775Z,16.78
2017-03-26T00:31:24.456Z,16.89
2017-03-26T00:32:05.184Z,16.81
2017-03-26T00:32:45.911Z,16.86
2017-03-26T00:33:26.542Z,16.81
2017-03-26T00:34:07.267Z,16.88
2017-03-26T00:34:47.973Z,16.86
2017-03-26T00:35:28.672Z,16.78
2017-03-26T00:36:09.326Z,16.78
2017-03-26T00:36:50.024Z,16.81
2017-03-26T00:37:30.752Z,16.78
2017-03-26T00:38:11.380Z,16.81
2017-03-26T00:38:52.099Z,16.77
2017-03-26T00:39:32.743Z,16.81
2017-03-26T00:40:13.371Z,16.85
2017-03-26T00:40:54.002Z,16.8
2017-03-26T00:41:34.670Z,16.81
2017-03-26T00:42:15.299Z,16.86
2017-03-26T00:42:55.925Z,16.78
2017-03-26T00:43:36.607Z,16.8
2017-03-26T00:44:17.351Z,16.78
2017-03-26T00:44:57.995Z,16.77
2017-03-26T00:45:38.629Z,16.83
2017-03-26T00:46:19.265Z,16.8
2017-03-26T00:46:59.889Z,16.81
2017-03-26T00:47:40.596Z,16.78
2017-03-26T00:48:21.314Z,16.78
2017-03-26T00:49:01.941Z,16.83
2017-03-26T00:49:42.601Z,16.77
2017-03-26T00:50:23.229Z,16.74
2017-03-26T00:51:03.880Z,16.83
2017-03-26T00:51:44.560Z,16.75
2017-03-26T00:52:25.263Z,16.77
2017-03-26T00:53:05.932Z,16.78
2017-03-26T00:53:46.583Z,16.78
2017-03-26T00:54:27.292Z,16.83
2017-03-26T00:55:07.922Z,16.81
2017-03-26T00:55:48.554Z,16.78
2017-03-26T00:56:29.212Z,16.8
2017-03-26T00:57:09.846Z,16.78
2017-03-26T00:57:50.478Z,16.83
2017-03-26T00:58:31.178Z,16.74
2017-03-26T00:59:11.891Z,16.86
2017-03-26T00:59:52.519Z,16.81
2017-03-26T01:00:33.196Z,16.85
2017-03-26T01:01:13.922Z,16.78
2017-03-26T01:01:54.580Z,16.78
2017-03-26T01:02:35.242Z,16.8
2017-03-26T01:03:15.969Z,16.77
2017-03-26T01:03:56.696Z,16.8
2017-03-26T01:04:37.336Z,16.83
2017-03-26T01:05:18.062Z,16.81
2017-03-26T01:05:58.755Z,16.83
2017-03-26T01:06:39.376Z,16.8
2017-03-26T01:07:20.011Z,16.8
2017-03-26T01:08:00.671Z,16.8
2017-03-26T01:08:41.357Z,16.83
2017-03-26T01:09:21.984Z,16.8
2017-03-26T01:10:02.686Z,16.85
2017-03-26T01:10:43.421Z,16.81
2017-03-26T01:11:24.048Z,16.89
2017-03-26T01:12:04.717Z,16.83
2017-03-26T01:12:45.382Z,16.83
2017-03-26T01:13:26.005Z,16.77
2017-03-26T01:14:06.672Z,16.81
2017-03-26T01:14:47.376Z,16.81
2017-03-26T01:15:28.032Z,16.8
2017-03-26T01:16:08.681Z,16.86
2017-03-26T01:16:49.383Z,16.8
2017-03-26T01:17:30.011Z,16.77
2017-03-26T01:18:10.640Z,16.81
2017-03-26T01:18:51.319Z,16.77
2017-03-26T01:19:31.955Z,16.83
2017-03-26T01:20:12.578Z,16.86
2017-03-26T01:20:53.294Z,16.78
2017-03-26T01:21:33.998Z,16.78
2017-03-26T01:22:14.647Z,16.83
2017-03-26T01:22:55.295Z,16.78
2017-03-26T01:23:36.044Z,16.8
2017-03-26T01:24:16.754Z,16.78
2017-03-26T01:24:57.411Z,16.83
2017-03-26T01:25:38.044Z,16.77
2017-03-26T01:26:18.676Z,16.8
2017-03-26T01:26:59.301Z,16.81
2017-03-26T01:27:40.015Z,16.83
2017-03-26T01:28:20.734Z,16.75
2017-03-26T01:29:01.370Z,16.8
2017-03-26T01:29:42.018Z,16.78
2017-03-26T01:30:22.664Z,16.8
2017-03-26T01:31:03.296Z,16.81
2017-03-26T01:31:43.933Z,16.78
2017-03-26T01:32:24.566Z,16.78
2017-03-26T01:33:05.191Z,16.81
2017-03-26T01:33:45.883Z,16.77
2017-03-26T01:34:26.631Z,16.77
2017-03-26T01:35:07.269Z,16.8
2017-03-26T01:35:47.907Z,16.83
2017-03-26T01:36:28.638Z,16.8
2017-03-26T01:37:09.379Z,16.8
2017-03-26T01:37:50.005Z,16.8
2017-03-26T01:38:30.681Z,16.75
2017-03-26T01:39:11.405Z,16.78
2017-03-26T01:39:52.042Z,16.8
2017-03-26T01:40:32.675Z,16.88
2017-03-26T01:41:13.374Z,16.78
2017-03-26T01:41:54.089Z,16.83
2017-03-26T01:42:34.721Z,16.78
2017-03-26T01:43:15.385Z,16.85
2017-03-26T01:43:56.108Z,16.81
2017-03-26T01:44:36.732Z,16.8
2017-03-26T01:45:17.416Z,16.8
2017-03-26T01:45:58.129Z,16.81
2017-03-26T01:46:38.797Z,16.78
2017-03-26T01:47:19.434Z,16.78
2017-03-26T01:48:00.190Z,16.81
2017-03-26T01:48:40.917Z,16.81
2017-03-26T01:49:21.548Z,16.86
2017-03-26T01:50:02.201Z,16.85
2017-03-26T01:50:42.872Z,16.8
2017-03-26T01:51:23.496Z,16.86
2017-03-26T01:52:04.164Z,16.8
2017-03-26T01:52:44.864Z,16.78
2017-03-26T01:53:25.488Z,16.81
2017-03-26T01:54:06.164Z,16.78
2017-03-26T01:54:46.811Z,16.75
2017-03-26T01:55:27.449Z,16.88
2017-03-26T01:56:08.097Z,16.78
2017-03-26T01:56:48.821Z,16.86
2017-03-26T01:57:29.485Z,16.77
2017-03-26T01:58:10.121Z,16.77
2017-03-26T01:58:50.804Z,16.86
2017-03-26T01:59:31.501Z,16.81
2017-03-26T02:00:12.132Z,16.8
2017-03-26T02:00:52.784Z,16.85
2017-03-26T02:01:33.403Z,16.81
2017-03-26T02:02:14.024Z,16.81
2017-03-26T02:02:54.726Z,16.83
2017-03-26T02:03:35.465Z,16.86
2017-03-26T02:04:16.121Z,16.78
2017-03-26T02:04:56.745Z,16.88
2017-03-26T02:05:37.465Z,16.8
2017-03-26T02:06:18.094Z,16.86
2017-03-26T02:06:58.718Z,16.92
2017-03-26T02:07:39.415Z,16.88
2017-03-26T02:08:20.149Z,16.86
2017-03-26T02:09:00.772Z,16.81
2017-03-26T02:09:41.438Z,16.83
2017-03-26T02:10:22.171Z,16.83
2017-03-26T02:11:02.875Z,16.8
2017-03-26T02:11:43.525Z,16.8
2017-03-26T02:12:24.235Z,16.78
2017-03-26T02:13:04.903Z,16.81
2017-03-26T02:13:45.528Z,16.81
2017-03-26T02:14:26.192Z,16.81
2017-03-26T02:15:06.894Z,16.85
2017-03-26T02:15:47.522Z,16.81
2017-03-26T02:16:28.155Z,16.81
2017-03-26T02:17:08.831Z,16.75
2017-03-26T02:17:49.454Z,16.77
2017-03-26T02:18:30.134Z,16.8
2017-03-26T02:19:10.854Z,16.8
2017-03-26T02:19:51.555Z,16.85
2017-03-26T02:20:32.228Z,16.86
2017-03-26T02:21:12.875Z,16.78
2017-03-26T02:21:53.576Z,16.81
2017-03-26T02:22:34.198Z,16.77
2017-03-26T02:23:14.820Z,16.86
2017-03-26T02:23:55.526Z,16.83
2017-03-26T02:24:36.142Z,16.8
2017-03-26T02:25:16.828Z,16.78
2017-03-26T02:25:57.555Z,16.86
2017-03-26T02:26:38.270Z,16.78
2017-03-26T02:27:18.932Z,16.86
2017-03-26T02:27:59.609Z,16.8
2017-03-26T02:28:40.330Z,16.83
2017-03-26T02:29:20.954Z,16.75
2017-03-26T02:30:01.619Z,16.8
2017-03-26T02:30:42.348Z,16.83
2017-03-26T02:31:23.044Z,16.78
2017-03-26T02:32:03.593Z,16.78
2017-03-26T02:32:44.271Z,16.8
2017-03-26T02:33:24.948Z,16.81
2017-03-26T02:34:05.595Z,16.77
2017-03-26T02:34:46.297Z,16.75
2017-03-26T02:35:26.924Z,16.83
2017-03-26T02:36:07.539Z,16.78
2017-03-26T02:36:48.215Z,16.86
2017-03-26T02:37:28.895Z,16.83
2017-03-26T02:38:09.522Z,16.89
2017-03-26T02:38:50.202Z,16.75
2017-03-26T02:39:30.908Z,16.78
2017-03-26T02:40:11.535Z,16.89
2017-03-26T02:40:52.210Z,16.83
2017-03-26T02:41:32.936Z,16.83
2017-03-26T02:42:13.554Z,16.81
2017-03-26T02:42:54.242Z,16.86
2017-03-26T02:43:34.968Z,16.78
2017-03-26T02:44:15.610Z,16.86
2017-03-26T02:44:56.236Z,16.81
2017-03-26T02:45:36.930Z,16.75
2017-03-26T02:46:17.641Z,16.78
2017-03-26T02:46:58.271Z,16.83
2017-03-26T02:47:38.927Z,16.86
2017-03-26T02:48:19.671Z,16.86
2017-03-26T02:49:00.325Z,16.83
2017-03-26T02:49:40.949Z,16.83
2017-03-26T02:50:21.608Z,16.8
2017-03-26T02:51:02.270Z,16.7
2017-03-26T02:51:42.898Z,16.81
2017-03-26T02:52:23.616Z,16.8
2017-03-26T02:53:04.236Z,16.8
2017-03-26T02:53:44.859Z,16.83
2017-03-26T02:54:26.279Z,16.77
2017-03-26T02:55:06.910Z,16.77
2017-03-26T02:55:47.623Z,16.75
2017-03-26T02:56:28.263Z,16.8
2017-03-26T02:57:08.896Z,16.74
2017-03-26T02:57:49.615Z,16.81
2017-03-26T02:58:30.245Z,16.77
2017-03-26T02:59:10.922Z,16.78
2017-03-26T02:59:51.583Z,16.73
2017-03-26T03:00:32.317Z,16.75
2017-03-26T03:01:13.070Z,16.77
2017-03-26T03:01:53.692Z,16.8
2017-03-26T03:02:34.404Z,16.83
2017-03-26T03:03:15.130Z,16.74
2017-03-26T03:03:55.816Z,16.77
2017-03-26T03:04:36.440Z,16.75
2017-03-26T03:05:17.063Z,16.8
2017-03-26T03:05:57.746Z,16.77
2017-03-26T03:06:38.369Z,16.81
2017-03-26T03:07:18.996Z,16.74
2017-03-26T03:07:59.645Z,16.78
2017-03-26T03:08:40.287Z,16.81
2017-03-26T03:09:20.967Z,16.81
2017-03-26T03:10:01.634Z,16.8
2017-03-26T03:10:42.263Z,16.74
2017-03-26T03:11:22.887Z,16.81
2017-03-26T03:12:03.558Z,16.78
2017-03-26T03:12:44.193Z,16.78
2017-03-26T03:13:24.808Z,16.81
2017-03-26T03:14:05.485Z,16.71
2017-03-26T03:14:46.115Z,16.77
2017-03-26T03:15:26.741Z,16.8
2017-03-26T03:16:07.417Z,16.78
2017-03-26T03:16:48.043Z,16.77
2017-03-26T03:17:28.665Z,16.78
2017-03-26T03:18:09.345Z,16.74
2017-03-26T03:18:49.977Z,16.75
2017-03-26T03:19:30.638Z,16.77
2017-03-26T03:20:11.337Z,16.77
2017-03-26T03:20:51.962Z,16.71
2017-03-26T03:21:32.669Z,16.77
2017-03-26T03:22:13.333Z,16.78
2017-03-26T03:22:53.957Z,16.73
2017-03-26T03:23:34.578Z,16.78
2017-03-26T03:24:15.258Z,16.78
2017-03-26T03:24:55.890Z,16.73
2017-03-26T03:25:36.527Z,16.75
2017-03-26T03:26:17.177Z,16.8
2017-03-26T03:26:57.821Z,16.75
2017-03-26T03:27:38.463Z,16.77
2017-03-26T03:28:19.178Z,16.67
2017-03-26T03:28:59.840Z,16.81
2017-03-26T03:29:40.466Z,16.77
2017-03-26T03:30:21.128Z,16.75
2017-03-26T03:31:01.869Z,16.8
2017-03-26T03:31:42.498Z,16.8
2017-03-26T03:32:23.121Z,16.81
2017-03-26T03:33:03.749Z,16.74
2017-03-26T03:33:44.381Z,16.75
2017-03-26T03:34:25.086Z,16.8
2017-03-26T03:35:05.813Z,16.77
2017-03-26T03:35:46.477Z,16.7
2017-03-26T03:36:27.111Z,16.81
2017-03-26T03:37:07.839Z,16.73
2017-03-26T03:37:48.595Z,16.68
2017-03-26T03:38:29.224Z,16.71
2017-03-26T03:39:09.894Z,16.71
2017-03-26T03:39:50.606Z,16.7
2017-03-26T03:40:31.285Z,16.67
2017-03-26T03:41:11.966Z,16.7
2017-03-26T03:41:52.660Z,16.75
2017-03-26T03:42:33.432Z,16.7
2017-03-26T03:43:14.060Z,16.7
2017-03-26T03:43:54.780Z,16.74
2017-03-26T03:44:35.479Z,16.67
2017-03-26T03:45:16.194Z,16.77
2017-03-26T03:45:56.823Z,16.67
2017-03-26T03:46:37.459Z,16.65
2017-03-26T03:47:18.193Z,16.71
2017-03-26T03:47:58.820Z,16.7
2017-03-26T03:48:39.481Z,16.74
2017-03-26T03:49:20.135Z,16.77
2017-03-26T03:50:00.756Z,16.67
2017-03-26T03:50:41.389Z,16.78
2017-03-26T03:51:22.056Z,16.77
2017-03-26T03:52:02.690Z,16.77
2017-03-26T03:52:43.362Z,16.83
2017-03-26T03:53:24.062Z,16.74
2017-03-26T03:54:04.688Z,16.67
2017-03-26T03:54:45.305Z,16.71
2017-03-26T03:55:25.990Z,16.7
2017-03-26T03:56:06.659Z,16.71
2017-03-26T03:56:47.306Z,16.67
2017-03-26T03:57:28.015Z,16.7
2017-03-26T03:58:08.639Z,16.65
2017-03-26T03:58:49.267Z,16.67
2017-03-26T03:59:29.977Z,16.75
2017-03-26T04:00:10.696Z,16.71
2017-03-26T04:00:51.334Z,16.74
2017-03-26T04:01:32.047Z,16.67
2017-03-26T04:02:12.779Z,16.77
2017-03-26T04:02:53.430Z,16.73
2017-03-26T04:03:34.052Z,16.75
2017-03-26T04:04:14.738Z,16.74
2017-03-26T04:04:55.368Z,16.71
2017-03-26T04:05:35.992Z,16.74
2017-03-26T04:06:16.656Z,16.74
2017-03-26T04:06:57.348Z,16.73
2017-03-26T04:07:37.981Z,16.74
2017-03-26T04:08:18.625Z,16.71
2017-03-26T04:08:59.324Z,16.75
2017-03-26T04:09:39.961Z,16.74
2017-03-26T04:10:20.639Z,16.71
2017-03-26T04:11:01.306Z,16.78
2017-03-26T04:11:41.932Z,16.75
2017-03-26T04:12:22.634Z,16.68
2017-03-26T04:13:04.201Z,16.7
2017-03-26T04:13:44.829Z,16.68
2017-03-26T04:14:25.498Z,16.65
2017-03-26T04:15:06.197Z,16.68
2017-03-26T04:15:46.852Z,16.78
2017-03-26T04:16:27.463Z,16.74
2017-03-26T04:17:08.083Z,16.65
2017-03-26T04:17:48.713Z,16.77
2017-03-26T04:18:29.402Z,16.74
2017-03-26T04:19:10.033Z,16.73
2017-03-26T04:19:50.710Z,16.67
2017-03-26T04:20:31.295Z,16.77
2017-03-26T04:21:11.942Z,16.65
2017-03-26T04:21:52.629Z,16.68
2017-03-26T04:22:33.190Z,16.68
2017-03-26T04:23:13.926Z,16.77
2017-03-26T04:23:54.613Z,16.74
2017-03-26T04:24:35.256Z,16.75
2017-03-26T04:25:15.905Z,16.73
2017-03-26T04:25:56.528Z,16.65
2017-03-26T04:26:37.163Z,16.68
2017-03-26T04:27:17.821Z,16.65
2017-03-26T04:27:58.452Z,16.75
2017-03-26T04:28:39.079Z,16.67
2017-03-26T04:29:19.767Z,16.67
2017-03-26T04:30:00.399Z,16.65
2017-03-26T04:30:41.020Z,16.67
2017-03-26T04:31:21.681Z,16.73
2017-03-26T04:32:02.423Z,16.68
2017-03-26T04:32:43.046Z,16.77
2017-03-26T04:33:23.684Z,16.75
2017-03-26T04:34:04.355Z,16.68
2017-03-26T04:34:44.975Z,16.71
2017-03-26T04:35:25.613Z,16.73
2017-03-26T04:36:06.289Z,16.67
2017-03-26T04:36:46.911Z,16.7
2017-03-26T04:37:27.592Z,16.68
2017-03-26T04:38:08.289Z,16.73
2017-03-26T04:38:48.947Z,16.68
2017-03-26T04:39:29.589Z,16.65
2017-03-26T04:40:10.235Z,16.68
2017-03-26T04:40:50.863Z,16.7
2017-03-26T04:41:31.487Z,16.67
2017-03-26T04:42:12.163Z,16.74
2017-03-26T04:42:52.804Z,16.7
2017-03-26T04:43:33.429Z,16.71
2017-03-26T04:44:14.156Z,16.71
2017-03-26T04:44:54.788Z,16.68
2017-03-26T04:45:35.414Z,16.68
2017-03-26T04:46:16.097Z,16.75
2017-03-26T04:46:56.838Z,16.67
2017-03-26T04:47:37.465Z,16.7
2017-03-26T04:48:18.128Z,16.7
2017-03-26T04:48:58.863Z,16.7
2017-03-26T04:49:39.555Z,16.65
2017-03-26T04:50:20.177Z,16.67
2017-03-26T04:51:00.884Z,16.75
2017-03-26T04:51:41.513Z,16.67
2017-03-26T04:52:22.144Z,16.75
2017-03-26T04:53:02.842Z,16.73
2017-03-26T04:53:43.544Z,16.75
2017-03-26T04:54:24.169Z,16.65
2017-03-26T04:55:04.865Z,16.63
2017-03-26T04:55:45.557Z,16.67
2017-03-26T04:56:26.296Z,16.68
2017-03-26T04:57:06.870Z,16.74
2017-03-26T04:57:47.558Z,16.68
2017-03-26T04:58:28.237Z,16.7
2017-03-26T04:59:08.864Z,16.68
2017-03-26T04:59:49.544Z,16.73
2017-03-26T05:00:30.192Z,16.73
2017-03-26T05:01:10.818Z,16.67
2017-03-26T05:01:51.509Z,16.65
2017-03-26T05:02:32.222Z,16.7
2017-03-26T05:03:12.866Z,16.71
2017-03-26T05:03:53.481Z,16.6
2017-03-26T05:04:34.107Z,16.67
2017-03-26T05:05:14.729Z,16.75
2017-03-26T05:05:55.351Z,16.7
2017-03-26T05:06:35.976Z,16.63
2017-03-26T05:07:16.602Z,16.67
2017-03-26T05:07:57.260Z,16.74
2017-03-26T05:08:37.987Z,16.8
2017-03-26T05:09:18.666Z,16.77
2017-03-26T05:09:59.334Z,16.78
2017-03-26T05:10:39.966Z,16.68
2017-03-26T05:11:20.603Z,16.67
2017-03-26T05:12:01.258Z,16.7
2017-03-26T05:12:41.945Z,16.71
2017-03-26T05:13:22.621Z,16.68
2017-03-26T05:14:03.265Z,16.78
2017-03-26T05:14:43.889Z,16.73
2017-03-26T05:15:24.600Z,16.73
2017-03-26T05:16:05.224Z,16.7
2017-03-26T05:16:45.852Z,16.62
2017-03-26T05:17:26.525Z,16.77
2017-03-26T05:18:07.147Z,16.65
2017-03-26T05:18:47.778Z,16.68
2017-03-26T05:19:28.420Z,16.68
2017-03-26T05:20:09.052Z,16.68
2017-03-26T05:20:49.691Z,16.7
2017-03-26T05:21:30.317Z,16.68
2017-03-26T05:22:10.947Z,16.74
2017-03-26T05:22:51.663Z,16.63
2017-03-26T05:23:32.339Z,16.67
2017-03-26T05:24:12.963Z,16.71
2017-03-26T05:24:53.590Z,16.68
2017-03-26T05:25:34.267Z,16.77
2017-03-26T05:26:14.891Z,16.74
2017-03-26T05:26:55.518Z,16.7
2017-03-26T05:27:36.247Z,16.8
2017-03-26T05:28:16.869Z,16.73
2017-03-26T05:28:57.533Z,16.71
2017-03-26T05:29:38.259Z,16.67
2017-03-26T05:30:18.957Z,16.71
2017-03-26T05:30:59.598Z,16.65
2017-03-26T05:31:40.275Z,16.73
2017-03-26T05:32:20.961Z,16.73
2017-03-26T05:33:01.590Z,16.67
2017-03-26T05:33:42.221Z,16.68
2017-03-26T05:34:22.940Z,16.67
2017-03-26T05:35:03.558Z,16.71
2017-03-26T05:35:44.216Z,16.73
2017-03-26T05:36:24.923Z,16.71
2017-03-26T05:37:05.548Z,16.67
2017-03-26T05:37:46.179Z,16.67
2017-03-26T05:38:26.933Z,16.71
2017-03-26T05:39:07.560Z,16.63
2017-03-26T05:39:48.185Z,16.7
2017-03-26T05:40:28.857Z,16.74
2017-03-26T05:41:09.514Z,16.68
2017-03-26T05:41:50.144Z,16.67
2017-03-26T05:42:30.851Z,16.68
2017-03-26T05:43:11.471Z,16.68
2017-03-26T05:43:52.101Z,16.71
2017-03-26T05:44:32.803Z,16.71
2017-03-26T05:45:13.507Z,16.74
2017-03-26T05:45:54.135Z,16.74
2017-03-26T05:46:34.804Z,16.75
2017-03-26T05:47:15.438Z,16.68
2017-03-26T05:47:56.066Z,16.73
2017-03-26T05:48:36.803Z,16.73
2017-03-26T05:49:17.488Z,16.67
2017-03-26T05:49:58.213Z,16.65
2017-03-26T05:50:38.850Z,16.65
2017-03-26T05:51:19.520Z,16.71
2017-03-26T05:52:00.230Z,16.78
2017-03-26T05:52:40.854Z,16.65
2017-03-26T05:53:21.535Z,16.7
2017-03-26T05:54:02.191Z,16.63
2017-03-26T05:54:42.820Z,16.67
2017-03-26T05:55:23.487Z,16.74
2017-03-26T05:56:04.226Z,16.73
2017-03-26T05:56:44.928Z,16.68
2017-03-26T05:57:25.581Z,16.73
2017-03-26T05:58:06.250Z,16.65
2017-03-26T05:58:46.951Z,16.67
2017-03-26T05:59:27.581Z,16.65
2017-03-26T06:00:08.288Z,16.71
2017-03-26T06:00:48.919Z,16.74
2017-03-26T06:01:29.545Z,16.74
2017-03-26T06:02:10.248Z,16.77
2017-03-26T06:02:50.960Z,16.68
2017-03-26T06:03:31.592Z,16.71
2017-03-26T06:04:12.220Z,16.71
2017-03-26T06:04:52.870Z,16.73
2017-03-26T06:05:33.512Z,16.62
2017-03-26T06:06:14.136Z,16.7
2017-03-26T06:06:54.831Z,16.67
2017-03-26T06:07:35.477Z,16.67
2017-03-26T06:08:16.112Z,16.7
2017-03-26T06:08:56.794Z,16.73
2017-03-26T06:09:37.412Z,16.67
2017-03-26T06:10:18.040Z,16.71
2017-03-26T06:10:58.718Z,16.68
2017-03-26T06:11:39.469Z,16.67
2017-03-26T06:12:20.083Z,16.68
2017-03-26T06:13:00.816Z,16.71
2017-03-26T06:13:41.546Z,16.75
2017-03-26T06:14:22.218Z,16.75
2017-03-26T06:15:02.838Z,16.7
2017-03-26T06:15:43.520Z,16.71
2017-03-26T06:16:24.156Z,16.73
2017-03-26T06:17:04.788Z,16.73
2017-03-26T06:17:45.435Z,16.67
2017-03-26T06:18:26.120Z,16.67
2017-03-26T06:19:06.743Z,16.68
2017-03-26T06:19:47.404Z,16.71
2017-03-26T06:20:28.028Z,16.74
2017-03-26T06:21:08.662Z,16.65
2017-03-26T06:21:49.333Z,16.67
2017-03-26T06:22:30.052Z,16.68
2017-03-26T06:23:10.674Z,16.77
2017-03-26T06:23:51.363Z,16.67
2017-03-26T06:24:32.097Z,16.71
2017-03-26T06:25:12.788Z,16.63
2017-03-26T06:25:53.429Z,16.68
2017-03-26T06:26:34.138Z,16.74
2017-03-26T06:27:14.885Z,16.7
2017-03-26T06:27:55.513Z,16.67
2017-03-26T06:28:36.174Z,16.75
2017-03-26T06:29:16.912Z,16.77
2017-03-26T06:29:57.588Z,16.62
2017-03-26T06:30:38.219Z,16.63
2017-03-26T06:31:18.896Z,16.68
2017-03-26T06:31:59.529Z,16.7
2017-03-26T06:32:40.155Z,16.73
2017-03-26T06:33:20.873Z,16.65
2017-03-26T06:34:01.596Z,16.71
2017-03-26T06:34:42.224Z,16.67
2017-03-26T06:35:22.867Z,16.7
2017-03-26T06:36:03.488Z,16.78
2017-03-26T06:36:44.115Z,16.71
2017-03-26T06:37:24.770Z,16.71
2017-03-26T06:38:05.393Z,16.67
2017-03-26T06:38:46.020Z,16.68
2017-03-26T06:39:26.743Z,16.67
2017-03-26T06:40:07.369Z,16.7
2017-03-26T06:40:47.996Z,16.67
2017-03-26T06:41:28.633Z,16.78
2017-03-26T06:42:09.282Z,16.73
2017-03-26T06:42:49.912Z,16.68
2017-03-26T06:43:30.613Z,16.67
2017-03-26T06:44:11.313Z,16.67
2017-03-26T06:44:51.953Z,16.65
2017-03-26T06:45:32.578Z,16.68
2017-03-26T06:46:13.203Z,16.68
2017-03-26T06:46:53.914Z,16.67
2017-03-26T06:47:34.568Z,16.67
2017-03-26T06:48:15.196Z,16.68
2017-03-26T06:48:55.887Z,16.65
2017-03-26T06:49:36.511Z,16.73
2017-03-26T06:50:17.227Z,16.7
2017-03-26T06:50:58.641Z,16.73
2017-03-26T06:51:39.314Z,16.71
2017-03-26T06:52:20.018Z,16.68
2017-03-26T06:53:00.655Z,16.73
2017-03-26T06:53:41.288Z,16.65
2017-03-26T06:54:21.951Z,16.73
2017-03-26T06:55:02.587Z,16.68
2017-03-26T06:55:43.210Z,16.67
2017-03-26T06:56:23.880Z,16.68
2017-03-26T06:57:04.510Z,16.7
2017-03-26T06:57:45.135Z,16.68
2017-03-26T06:58:25.812Z,16.71
2017-03-26T06:59:06.487Z,16.73
2017-03-26T06:59:47.126Z,16.7
2017-03-26T07:00:27.768Z,16.71
2017-03-26T07:01:08.529Z,16.74
2017-03-26T07:01:49.153Z,16.68
2017-03-26T07:02:29.829Z,16.65
2017-03-26T07:03:10.520Z,16.7
2017-03-26T07:03:51.145Z,16.65
2017-03-26T07:04:31.829Z,16.63
2017-03-26T07:05:12.594Z,16.73
2017-03-26T07:05:53.296Z,16.65
2017-03-26T07:06:33.920Z,16.71
2017-03-26T07:07:14.583Z,16.65
2017-03-26T07:07:55.252Z,16.77
2017-03-26T07:08:35.893Z,16.68
2017-03-26T07:09:16.541Z,16.67
2017-03-26T07:09:57.242Z,16.65
2017-03-26T07:10:37.870Z,16.67
2017-03-26T07:11:18.511Z,16.63
2017-03-26T07:11:59.205Z,16.71
2017-03-26T07:12:39.840Z,16.71
2017-03-26T07:13:20.461Z,16.68
2017-03-26T07:14:01.138Z,16.68
2017-03-26T07:14:41.843Z,16.67
2017-03-26T07:15:22.486Z,16.68
2017-03-26T07:16:03.165Z,16.65
2017-03-26T07:16:43.861Z,16.73
2017-03-26T07:17:24.481Z,16.74
2017-03-26T07:18:05.144Z,16.7
2017-03-26T07:18:45.836Z,16.7
2017-03-26T07:19:26.454Z,16.65
2017-03-26T07:20:07.123Z,16.63
2017-03-26T07:20:47.824Z,16.65
2017-03-26T07:21:28.494Z,16.78
2017-03-26T07:22:09.127Z,16.67
2017-03-26T07:22:49.852Z,16.67
2017-03-26T07:23:30.485Z,16.74
2017-03-26T07:24:11.105Z,16.65
2017-03-26T07:24:51.804Z,16.75
2017-03-26T07:25:32.527Z,16.68
2017-03-26T07:26:13.150Z,16.73
2017-03-26T07:26:53.820Z,16.67
2017-03-26T07:27:34.468Z,16.73
2017-03-26T07:28:15.099Z,16.77
2017-03-26T07:28:55.770Z,16.63
2017-03-26T07:29:36.470Z,16.63
2017-03-26T07:30:17.149Z,16.77
2017-03-26T07:30:57.790Z,16.73
2017-03-26T07:31:38.496Z,16.73
2017-03-26T07:32:19.120Z,16.7
2017-03-26T07:32:59.750Z,16.74
2017-03-26T07:33:40.458Z,16.62
2017-03-26T07:34:21.154Z,16.68
2017-03-26T07:35:01.777Z,16.71
2017-03-26T07:35:42.480Z,16.71
2017-03-26T07:36:23.250Z,16.68
2017-03-26T07:37:03.916Z,16.75
2017-03-26T07:37:44.544Z,16.7
2017-03-26T07:38:25.301Z,16.65
2017-03-26T07:39:06.001Z,16.7
2017-03-26T07:39:46.628Z,16.67
2017-03-26T07:40:27.303Z,16.63
2017-03-26T07:41:08.006Z,16.68
2017-03-26T07:41:48.672Z,16.65
2017-03-26T07:42:29.315Z,16.74
2017-03-26T07:43:09.963Z,16.67
2017-03-26T07:43:50.664Z,16.7
2017-03-26T07:44:31.324Z,16.7
2017-03-26T07:45:11.992Z,16.71
2017-03-26T07:45:52.693Z,16.73
2017-03-26T07:46:33.323Z,16.67
2017-03-26T07:47:14.008Z,16.71
2017-03-26T07:47:54.670Z,16.7
2017-03-26T07:48:35.299Z,16.67
2017-03-26T07:49:15.966Z,16.67
2017-03-26T07:49:56.668Z,16.67
2017-03-26T07:50:37.337Z,16.71
2017-03-26T07:51:17.984Z,16.71
2017-03-26T07:51:58.722Z,16.73
2017-03-26T07:52:39.439Z,16.65
2017-03-26T07:53:20.065Z,16.68
2017-03-26T07:54:00.728Z,16.71
2017-03-26T07:54:41.391Z,16.74
2017-03-26T07:55:22.018Z,16.68
2017-03-26T07:56:02.704Z,16.68
2017-03-26T07:56:43.386Z,16.7
2017-03-26T07:57:24.051Z,16.71
2017-03-26T07:58:04.712Z,16.63
2017-03-26T07:58:45.414Z,16.74
2017-03-26T07:59:26.048Z,16.68
2017-03-26T08:00:06.681Z,16.73
2017-03-26T08:00:47.383Z,16.67
2017-03-26T08:01:28.095Z,16.71
2017-03-26T08:02:08.719Z,16.73
2017-03-26T08:02:49.383Z,16.55
2017-03-26T08:03:30.044Z,16.7
2017-03-26T08:04:10.677Z,16.73
2017-03-26T08:04:51.360Z,16.7
2017-03-26T08:05:32.048Z,16.67
2017-03-26T08:06:12.710Z,16.68
2017-03-26T08:06:53.359Z,16.67
2017-03-26T08:07:34.122Z,16.67
2017-03-26T08:08:14.808Z,16.68
2017-03-26T08:08:55.449Z,16.7
2017-03-26T08:09:36.116Z,16.65
2017-03-26T08:10:16.838Z,16.68
2017-03-26T08:10:57.461Z,16.63
2017-03-26T08:11:38.088Z,16.71
2017-03-26T08:12:18.777Z,16.73
2017-03-26T08:12:59.444Z,16.68
2017-03-26T08:13:40.080Z,16.7
2017-03-26T08:14:20.789Z,16.63
2017-03-26T08:15:01.417Z,16.65
2017-03-26T08:15:42.040Z,16.65
2017-03-26T08:16:22.764Z,16.6
2017-03-26T08:17:03.482Z,16.63
2017-03-26T08:17:44.115Z,16.65
2017-03-26T08:18:24.749Z,16.65
2017-03-26T08:19:05.413Z,16.71
2017-03-26T08:19:46.045Z,16.68
2017-03-26T08:20:26.692Z,16.71
2017-03-26T08:21:07.386Z,16.67
2017-03-26T08:21:48.135Z,16.67
2017-03-26T08:22:28.666Z,16.63
2017-03-26T08:23:09.380Z,16.7
2017-03-26T08:23:50.015Z,16.67
2017-03-26T08:24:30.664Z,16.67
2017-03-26T08:25:11.375Z,16.71
2017-03-26T08:25:52.122Z,16.68
2017-03-26T08:26:32.751Z,16.7
2017-03-26T08:27:13.504Z,16.74
2017-03-26T08:27:54.191Z,16.7
2017-03-26T08:28:34.896Z,16.73
2017-03-26T08:29:15.543Z,16.71
2017-03-26T08:29:56.222Z,16.73
2017-03-26T08:30:36.922Z,16.68
2017-03-26T08:31:17.544Z,16.7
2017-03-26T08:31:58.228Z,16.68
2017-03-26T08:32:38.894Z,16.67
2017-03-26T08:33:19.517Z,16.67
2017-03-26T08:34:00.181Z,16.67
2017-03-26T08:34:40.878Z,16.74
2017-03-26T08:35:21.504Z,16.68
2017-03-26T08:36:02.122Z,16.67
2017-03-26T08:36:42.812Z,16.71
2017-03-26T08:37:23.483Z,16.68
2017-03-26T08:38:04.111Z,16.67
2017-03-26T08:38:44.829Z,16.68
2017-03-26T08:39:25.460Z,16.62
2017-03-26T08:40:06.090Z,16.68
2017-03-26T08:40:47.417Z,16.59
2017-03-26T08:41:28.044Z,16.67
2017-03-26T08:42:08.681Z,16.63
2017-03-26T08:42:49.336Z,16.73
2017-03-26T08:43:29.954Z,16.7
2017-03-26T08:44:10.596Z,16.74
2017-03-26T08:44:51.225Z,16.67
2017-03-26T08:45:31.850Z,16.73
2017-03-26T08:46:12.589Z,16.71